sensor_id;sensor_type;location;lat;lon;timestamp;temperature;humidity
81307;DHT22;70775;50.846;3.224;2024-01-27T00:02:22;4.00;99.90
81307;DHT22;70775;50.846;3.224;2024-01-27T00:04:47;3.90;99.90
81307;DHT22;70775;50.846;3.224;2024-01-27T00:07:19;3.90;99.90
81307;DHT22;70775;50.846;3.224;2024-01-27T00:09:55;4.00;99.90
81307;DHT22;70775;50.846;3.224;2024-01-27T00:12:21;4.00;99.90
81307;DHT22;70775;50.846;3.224;2024-01-27T00:14:47;4.00;99.90
81307;DHT22;70775;50.846;3.224;2024-01-27T00:17:13;3.90;99.90
81307;DHT22;70775;50.846;3.224;2024-01-27T00:19:39;3.80;99.90
81307;DHT22;70775;50.846;3.224;2024-01-27T00:22:13;3.80;99.90
81307;DHT22;70775;50.846;3.224;2024-01-27T00:24:39;3.70;99.90
81307;DHT22;70775;50.846;3.224;2024-01-27T00:27:04;3.80;99.90
81307;DHT22;70775;50.846;3.224;2024-01-27T00:29:41;3.90;99.90
81307;DHT22;70775;50.846;3.224;2024-01-27T00:32:06;3.70;99.90
81307;DHT22;70775;50.846;3.224;2024-01-27T00:34:32;3.70;99.90
81307;DHT22;70775;50.846;3.224;2024-01-27T00:36:58;3.80;99.90
81307;DHT22;70775;50.846;3.224;2024-01-27T00:39:24;3.70;99.90
81307;DHT22;70775;50.846;3.224;2024-01-27T00:41:51;3.70;99.90
81307;DHT22;70775;50.846;3.224;2024-01-27T00:44:18;3.50;99.90
81307;DHT22;70775;50.846;3.224;2024-01-27T00:47:03;3.60;99.90
81307;DHT22;70775;50.846;3.224;2024-01-27T00:49:28;3.70;99.90
81307;DHT22;70775;50.846;3.224;2024-01-27T00:51:54;3.90;99.90
81307;DHT22;70775;50.846;3.224;2024-01-27T00:54:20;3.90;99.90
81307;DHT22;70775;50.846;3.224;2024-01-27T00:56:46;4.00;99.90
81307;DHT22;70775;50.846;3.224;2024-01-27T00:59:21;3.90;99.90
81307;DHT22;70775;50.846;3.224;2024-01-27T01:01:47;3.80;99.90
81307;DHT22;70775;50.846;3.224;2024-01-27T01:04:30;3.80;99.90
81307;DHT22;70775;50.846;3.224;2024-01-27T01:06:56;3.90;99.90
81307;DHT22;70775;50.846;3.224;2024-01-27T01:09:21;3.90;99.90
81307;DHT22;70775;50.846;3.224;2024-01-27T01:11:47;4.00;99.90
81307;DHT22;70775;50.846;3.224;2024-01-27T01:14:13;4.10;99.90
81307;DHT22;70775;50.846;3.224;2024-01-27T01:16:40;4.00;99.90
81307;DHT22;70775;50.846;3.224;2024-01-27T01:19:05;4.00;99.90
81307;DHT22;70775;50.846;3.224;2024-01-27T01:21:40;3.90;99.90
81307;DHT22;70775;50.846;3.224;2024-01-27T01:24:11;3.90;99.90
81307;DHT22;70775;50.846;3.224;2024-01-27T01:26:37;3.90;99.90
81307;DHT22;70775;50.846;3.224;2024-01-27T01:29:08;3.90;99.90
81307;DHT22;70775;50.846;3.224;2024-01-27T01:31:34;3.90;99.90
81307;DHT22;70775;50.846;3.224;2024-01-27T01:34:23;3.70;99.90
81307;DHT22;70775;50.846;3.224;2024-01-27T01:36:51;3.80;99.90
81307;DHT22;70775;50.846;3.224;2024-01-27T01:39:17;3.80;99.90
81307;DHT22;70775;50.846;3.224;2024-01-27T01:42:11;3.60;99.90
81307;DHT22;70775;50.846;3.224;2024-01-27T01:44:36;3.50;99.90
81307;DHT22;70775;50.846;3.224;2024-01-27T01:47:02;3.50;99.90
81307;DHT22;70775;50.846;3.224;2024-01-27T01:49:28;3.50;99.90
81307;DHT22;70775;50.846;3.224;2024-01-27T01:51:54;3.40;99.90
81307;DHT22;70775;50.846;3.224;2024-01-27T01:54:20;3.50;99.90
81307;DHT22;70775;50.846;3.224;2024-01-27T01:56:47;3.50;99.90
81307;DHT22;70775;50.846;3.224;2024-01-27T01:59:13;3.50;99.90
81307;DHT22;70775;50.846;3.224;2024-01-27T02:01:39;3.40;99.90
81307;DHT22;70775;50.846;3.224;2024-01-27T02:04:04;3.30;99.90
81307;DHT22;70775;50.846;3.224;2024-01-27T02:06:30;3.40;99.90
81307;DHT22;70775;50.846;3.224;2024-01-27T02:08:56;3.40;99.90
81307;DHT22;70775;50.846;3.224;2024-01-27T02:11:21;3.50;99.90
81307;DHT22;70775;50.846;3.224;2024-01-27T02:13:53;3.50;99.90
81307;DHT22;70775;50.846;3.224;2024-01-27T02:16:19;3.50;99.90
81307;DHT22;70775;50.846;3.224;2024-01-27T02:18:53;3.50;99.90
81307;DHT22;70775;50.846;3.224;2024-01-27T02:21:19;3.40;99.90
81307;DHT22;70775;50.846;3.224;2024-01-27T02:23:44;3.40;99.90
81307;DHT22;70775;50.846;3.224;2024-01-27T02:26:10;3.40;99.90
81307;DHT22;70775;50.846;3.224;2024-01-27T02:28:35;3.30;99.90
81307;DHT22;70775;50.846;3.224;2024-01-27T02:31:01;3.20;99.90
81307;DHT22;70775;50.846;3.224;2024-01-27T02:33:27;3.10;99.90
81307;DHT22;70775;50.846;3.224;2024-01-27T02:35:53;2.90;99.90
81307;DHT22;70775;50.846;3.224;2024-01-27T02:38:29;3.00;99.90
81307;DHT22;70775;50.846;3.224;2024-01-27T02:40:54;3.00;99.90
81307;DHT22;70775;50.846;3.224;2024-01-27T02:43:21;2.90;99.90
81307;DHT22;70775;50.846;3.224;2024-01-27T02:45:51;3.10;99.90
81307;DHT22;70775;50.846;3.224;2024-01-27T02:48:16;3.10;99.90
81307;DHT22;70775;50.846;3.224;2024-01-27T02:50:42;3.20;99.90
81307;DHT22;70775;50.846;3.224;2024-01-27T02:53:24;3.20;99.90
81307;DHT22;70775;50.846;3.224;2024-01-27T02:55:49;3.30;99.90
81307;DHT22;70775;50.846;3.224;2024-01-27T02:58:15;3.20;99.90
81307;DHT22;70775;50.846;3.224;2024-01-27T03:00:41;3.20;99.90
81307;DHT22;70775;50.846;3.224;2024-01-27T03:03:07;3.20;99.90
81307;DHT22;70775;50.846;3.224;2024-01-27T03:05:32;3.20;99.90
81307;DHT22;70775;50.846;3.224;2024-01-27T03:07:58;3.30;99.90
81307;DHT22;70775;50.846;3.224;2024-01-27T03:10:24;3.40;99.90
81307;DHT22;70775;50.846;3.224;2024-01-27T03:12:50;3.30;99.90
81307;DHT22;70775;50.846;3.224;2024-01-27T03:15:26;3.40;99.90
81307;DHT22;70775;50.846;3.224;2024-01-27T03:17:52;3.30;99.90
81307;DHT22;70775;50.846;3.224;2024-01-27T03:20:27;3.10;99.90
81307;DHT22;70775;50.846;3.224;2024-01-27T03:23:13;2.90;99.90
81307;DHT22;70775;50.846;3.224;2024-01-27T03:25:45;2.80;99.90
81307;DHT22;70775;50.846;3.224;2024-01-27T03:28:21;2.90;99.90
81307;DHT22;70775;50.846;3.224;2024-01-27T03:30:46;3.00;99.90
81307;DHT22;70775;50.846;3.224;2024-01-27T03:33:12;3.00;99.90
81307;DHT22;70775;50.846;3.224;2024-01-27T03:35:39;3.00;99.90
81307;DHT22;70775;50.846;3.224;2024-01-27T03:38:08;2.90;99.90
81307;DHT22;70775;50.846;3.224;2024-01-27T03:40:34;3.00;99.90
81307;DHT22;70775;50.846;3.224;2024-01-27T03:42:59;3.00;99.90
81307;DHT22;70775;50.846;3.224;2024-01-27T03:45:28;2.90;99.90
81307;DHT22;70775;50.846;3.224;2024-01-27T03:47:53;3.00;99.90
81307;DHT22;70775;50.846;3.224;2024-01-27T03:50:19;3.00;99.90
81307;DHT22;70775;50.846;3.224;2024-01-27T03:52:45;2.90;99.90
81307;DHT22;70775;50.846;3.224;2024-01-27T03:58:49;2.90;99.90
81307;DHT22;70775;50.846;3.224;2024-01-27T04:01:29;3.00;99.90
81307;DHT22;70775;50.846;3.224;2024-01-27T04:03:54;2.90;99.90
81307;DHT22;70775;50.846;3.224;2024-01-27T04:06:20;2.80;99.90
81307;DHT22;70775;50.846;3.224;2024-01-27T04:08:45;2.70;99.90
81307;DHT22;70775;50.846;3.224;2024-01-27T04:11:21;2.80;99.90
81307;DHT22;70775;50.846;3.224;2024-01-27T04:13:49;2.80;99.90
81307;DHT22;70775;50.846;3.224;2024-01-27T04:16:29;2.80;99.90
81307;DHT22;70775;50.846;3.224;2024-01-27T04:18:58;2.80;99.90
81307;DHT22;70775;50.846;3.224;2024-01-27T04:21:23;2.60;99.90
81307;DHT22;70775;50.846;3.224;2024-01-27T04:23:49;2.50;99.90
81307;DHT22;70775;50.846;3.224;2024-01-27T04:26:15;2.50;99.90
81307;DHT22;70775;50.846;3.224;2024-01-27T04:28:41;2.50;99.90
81307;DHT22;70775;50.846;3.224;2024-01-27T04:31:06;2.50;99.90
81307;DHT22;70775;50.846;3.224;2024-01-27T04:33:32;2.50;99.90
81307;DHT22;70775;50.846;3.224;2024-01-27T04:35:58;2.60;99.90
81307;DHT22;70775;50.846;3.224;2024-01-27T04:38:24;2.50;99.90
81307;DHT22;70775;50.846;3.224;2024-01-27T04:40:50;2.40;99.90
81307;DHT22;70775;50.846;3.224;2024-01-27T04:43:16;2.50;99.90
81307;DHT22;70775;50.846;3.224;2024-01-27T04:45:42;2.40;99.90
81307;DHT22;70775;50.846;3.224;2024-01-27T04:48:08;2.40;99.90
81307;DHT22;70775;50.846;3.224;2024-01-27T04:50:41;2.40;99.90
81307;DHT22;70775;50.846;3.224;2024-01-27T04:53:14;2.40;99.90
81307;DHT22;70775;50.846;3.224;2024-01-27T04:55:40;2.30;99.90
81307;DHT22;70775;50.846;3.224;2024-01-27T04:58:23;2.40;99.90
81307;DHT22;70775;50.846;3.224;2024-01-27T05:01:02;2.50;99.90
81307;DHT22;70775;50.846;3.224;2024-01-27T05:03:28;2.50;99.90
81307;DHT22;70775;50.846;3.224;2024-01-27T05:06:01;2.50;99.90
81307;DHT22;70775;50.846;3.224;2024-01-27T05:08:26;2.40;99.90
81307;DHT22;70775;50.846;3.224;2024-01-27T05:10:52;2.30;99.90
81307;DHT22;70775;50.846;3.224;2024-01-27T05:13:18;2.10;99.90
81307;DHT22;70775;50.846;3.224;2024-01-27T05:16:18;2.00;99.90
81307;DHT22;70775;50.846;3.224;2024-01-27T05:18:44;2.00;99.90
81307;DHT22;70775;50.846;3.224;2024-01-27T05:21:10;2.10;99.90
81307;DHT22;70775;50.846;3.224;2024-01-27T05:23:35;2.20;99.90
81307;DHT22;70775;50.846;3.224;2024-01-27T05:26:01;2.30;99.90
81307;DHT22;70775;50.846;3.224;2024-01-27T05:28:27;2.30;99.90
81307;DHT22;70775;50.846;3.224;2024-01-27T05:31:00;2.40;99.90
81307;DHT22;70775;50.846;3.224;2024-01-27T05:33:26;2.40;99.90
81307;DHT22;70775;50.846;3.224;2024-01-27T05:35:53;2.40;99.90
81307;DHT22;70775;50.846;3.224;2024-01-27T05:38:28;2.20;99.90
81307;DHT22;70775;50.846;3.224;2024-01-27T05:40:55;2.20;99.90
81307;DHT22;70775;50.846;3.224;2024-01-27T05:43:21;2.20;99.90
81307;DHT22;70775;50.846;3.224;2024-01-27T05:45:48;2.10;99.90
81307;DHT22;70775;50.846;3.224;2024-01-27T05:48:14;2.10;99.90
81307;DHT22;70775;50.846;3.224;2024-01-27T05:50:42;2.20;99.90
81307;DHT22;70775;50.846;3.224;2024-01-27T05:53:09;2.20;99.90
81307;DHT22;70775;50.846;3.224;2024-01-27T05:55:36;2.10;99.90
81307;DHT22;70775;50.846;3.224;2024-01-27T05:58:02;2.00;99.90
81307;DHT22;70775;50.846;3.224;2024-01-27T06:00:39;2.00;99.90
81307;DHT22;70775;50.846;3.224;2024-01-27T06:03:08;2.00;99.90
81307;DHT22;70775;50.846;3.224;2024-01-27T06:05:33;2.00;99.90
81307;DHT22;70775;50.846;3.224;2024-01-27T06:07:59;2.10;99.90
81307;DHT22;70775;50.846;3.224;2024-01-27T06:10:24;2.10;99.90
81307;DHT22;70775;50.846;3.224;2024-01-27T06:12:50;2.10;99.90
81307;DHT22;70775;50.846;3.224;2024-01-27T06:15:23;2.10;99.90
81307;DHT22;70775;50.846;3.224;2024-01-27T06:17:49;2.10;99.90
81307;DHT22;70775;50.846;3.224;2024-01-27T06:20:18;2.10;99.90
81307;DHT22;70775;50.846;3.224;2024-01-27T06:22:45;2.00;99.90
81307;DHT22;70775;50.846;3.224;2024-01-27T06:28:21;1.90;99.90
81307;DHT22;70775;50.846;3.224;2024-01-27T06:30:47;1.90;99.90
81307;DHT22;70775;50.846;3.224;2024-01-27T06:33:12;1.80;99.90
81307;DHT22;70775;50.846;3.224;2024-01-27T06:35:38;1.80;99.90
81307;DHT22;70775;50.846;3.224;2024-01-27T06:38:03;1.80;99.90
81307;DHT22;70775;50.846;3.224;2024-01-27T06:40:29;1.80;99.90
81307;DHT22;70775;50.846;3.224;2024-01-27T06:42:55;1.80;99.90
81307;DHT22;70775;50.846;3.224;2024-01-27T06:45:21;1.80;99.90
81307;DHT22;70775;50.846;3.224;2024-01-27T06:47:47;2.00;99.90
81307;DHT22;70775;50.846;3.224;2024-01-27T06:50:14;2.00;99.90
81307;DHT22;70775;50.846;3.224;2024-01-27T06:52:40;2.10;99.90
81307;DHT22;70775;50.846;3.224;2024-01-27T06:55:06;2.20;99.90
81307;DHT22;70775;50.846;3.224;2024-01-27T06:57:38;2.20;99.90
81307;DHT22;70775;50.846;3.224;2024-01-27T07:00:08;2.30;99.90
81307;DHT22;70775;50.846;3.224;2024-01-27T07:02:45;2.40;99.90
81307;DHT22;70775;50.846;3.224;2024-01-27T07:05:11;2.40;99.90
81307;DHT22;70775;50.846;3.224;2024-01-27T07:07:40;2.30;99.90
81307;DHT22;70775;50.846;3.224;2024-01-27T07:10:07;2.20;99.90
81307;DHT22;70775;50.846;3.224;2024-01-27T07:12:36;2.20;99.90
81307;DHT22;70775;50.846;3.224;2024-01-27T07:15:02;2.20;99.90
81307;DHT22;70775;50.846;3.224;2024-01-27T07:17:29;2.30;99.90
81307;DHT22;70775;50.846;3.224;2024-01-27T07:19:55;2.20;99.90
81307;DHT22;70775;50.846;3.224;2024-01-27T07:22:28;2.00;99.90
81307;DHT22;70775;50.846;3.224;2024-01-27T07:24:54;2.10;99.90
81307;DHT22;70775;50.846;3.224;2024-01-27T07:27:22;2.10;99.90
81307;DHT22;70775;50.846;3.224;2024-01-27T07:29:51;2.20;99.90
81307;DHT22;70775;50.846;3.224;2024-01-27T07:32:17;2.20;99.90
81307;DHT22;70775;50.846;3.224;2024-01-27T07:34:43;2.30;99.90
81307;DHT22;70775;50.846;3.224;2024-01-27T07:37:09;2.30;99.90
81307;DHT22;70775;50.846;3.224;2024-01-27T07:39:35;2.30;99.90
81307;DHT22;70775;50.846;3.224;2024-01-27T07:42:01;2.30;99.90
81307;DHT22;70775;50.846;3.224;2024-01-27T07:44:27;2.30;99.90
81307;DHT22;70775;50.846;3.224;2024-01-27T07:47:07;2.20;99.90
81307;DHT22;70775;50.846;3.224;2024-01-27T07:49:34;2.20;99.90
81307;DHT22;70775;50.846;3.224;2024-01-27T07:52:00;2.10;99.90
81307;DHT22;70775;50.846;3.224;2024-01-27T07:54:25;2.20;99.90
81307;DHT22;70775;50.846;3.224;2024-01-27T07:57:02;2.20;99.90
81307;DHT22;70775;50.846;3.224;2024-01-27T07:59:28;2.30;99.90
81307;DHT22;70775;50.846;3.224;2024-01-27T08:01:53;2.30;99.90
81307;DHT22;70775;50.846;3.224;2024-01-27T08:04:19;2.40;99.90
81307;DHT22;70775;50.846;3.224;2024-01-27T08:06:49;2.40;99.90
81307;DHT22;70775;50.846;3.224;2024-01-27T08:09:21;2.40;99.90
81307;DHT22;70775;50.846;3.224;2024-01-27T08:11:47;2.40;99.90
81307;DHT22;70775;50.846;3.224;2024-01-27T08:14:17;2.50;99.90
81307;DHT22;70775;50.846;3.224;2024-01-27T08:16:42;2.50;99.90
81307;DHT22;70775;50.846;3.224;2024-01-27T08:19:08;2.50;99.90
81307;DHT22;70775;50.846;3.224;2024-01-27T08:21:34;2.50;99.90
81307;DHT22;70775;50.846;3.224;2024-01-27T08:24:00;2.60;99.90
81307;DHT22;70775;50.846;3.224;2024-01-27T08:26:25;2.60;99.90
81307;DHT22;70775;50.846;3.224;2024-01-27T08:28:51;2.60;99.90
81307;DHT22;70775;50.846;3.224;2024-01-27T08:31:17;2.70;99.90
81307;DHT22;70775;50.846;3.224;2024-01-27T08:33:42;2.70;99.90
81307;DHT22;70775;50.846;3.224;2024-01-27T08:36:13;2.90;99.90
81307;DHT22;70775;50.846;3.224;2024-01-27T08:38:39;2.90;99.90
81307;DHT22;70775;50.846;3.224;2024-01-27T08:41:05;3.00;99.90
81307;DHT22;70775;50.846;3.224;2024-01-27T08:43:30;3.00;99.90
81307;DHT22;70775;50.846;3.224;2024-01-27T08:45:56;3.10;99.90
81307;DHT22;70775;50.846;3.224;2024-01-27T08:48:27;3.20;99.90
81307;DHT22;70775;50.846;3.224;2024-01-27T08:50:52;3.30;99.90
81307;DHT22;70775;50.846;3.224;2024-01-27T08:53:18;3.30;99.90
81307;DHT22;70775;50.846;3.224;2024-01-27T08:55:51;3.40;99.90
81307;DHT22;70775;50.846;3.224;2024-01-27T08:58:19;3.40;99.90
81307;DHT22;70775;50.846;3.224;2024-01-27T09:00:44;3.50;99.90
81307;DHT22;70775;50.846;3.224;2024-01-27T09:03:10;3.50;99.90
81307;DHT22;70775;50.846;3.224;2024-01-27T09:05:51;3.50;99.90
81307;DHT22;70775;50.846;3.224;2024-01-27T09:08:27;3.50;99.90
81307;DHT22;70775;50.846;3.224;2024-01-27T09:10:53;3.50;99.90
81307;DHT22;70775;50.846;3.224;2024-01-27T09:13:18;3.70;99.90
81307;DHT22;70775;50.846;3.224;2024-01-27T09:15:44;3.70;99.90
81307;DHT22;70775;50.846;3.224;2024-01-27T09:18:12;3.80;99.90
81307;DHT22;70775;50.846;3.224;2024-01-27T09:20:38;3.90;99.90
81307;DHT22;70775;50.846;3.224;2024-01-27T09:23:04;3.90;99.90
81307;DHT22;70775;50.846;3.224;2024-01-27T09:25:30;4.00;99.90
81307;DHT22;70775;50.846;3.224;2024-01-27T09:27:56;4.10;99.90
81307;DHT22;70775;50.846;3.224;2024-01-27T09:30:26;4.10;99.90
81307;DHT22;70775;50.846;3.224;2024-01-27T09:32:52;4.20;99.90
81307;DHT22;70775;50.846;3.224;2024-01-27T09:35:33;4.40;99.90
81307;DHT22;70775;50.846;3.224;2024-01-27T09:37:59;4.50;99.90
81307;DHT22;70775;50.846;3.224;2024-01-27T09:40:25;4.40;99.90
81307;DHT22;70775;50.846;3.224;2024-01-27T09:42:52;4.40;99.90
81307;DHT22;70775;50.846;3.224;2024-01-27T09:45:21;4.50;99.90
81307;DHT22;70775;50.846;3.224;2024-01-27T09:47:48;4.60;99.90
81307;DHT22;70775;50.846;3.224;2024-01-27T09:50:17;4.70;99.90
81307;DHT22;70775;50.846;3.224;2024-01-27T09:52:44;5.00;99.90
81307;DHT22;70775;50.846;3.224;2024-01-27T09:55:09;5.00;99.90
81307;DHT22;70775;50.846;3.224;2024-01-27T09:57:38;5.20;99.90
81307;DHT22;70775;50.846;3.224;2024-01-27T10:00:25;5.20;99.90
81307;DHT22;70775;50.846;3.224;2024-01-27T10:02:58;5.10;99.90
81307;DHT22;70775;50.846;3.224;2024-01-27T10:05:24;5.20;99.90
81307;DHT22;70775;50.846;3.224;2024-01-27T10:08:08;5.30;99.90
81307;DHT22;70775;50.846;3.224;2024-01-27T10:10:35;5.50;99.90
81307;DHT22;70775;50.846;3.224;2024-01-27T10:13:01;5.70;99.90
81307;DHT22;70775;50.846;3.224;2024-01-27T10:15:29;5.90;99.90
81307;DHT22;70775;50.846;3.224;2024-01-27T10:21:15;6.10;99.90
81307;DHT22;70775;50.846;3.224;2024-01-27T10:24:03;6.10;99.90
81307;DHT22;70775;50.846;3.224;2024-01-27T10:26:32;6.10;99.90
81307;DHT22;70775;50.846;3.224;2024-01-27T10:28:58;6.20;99.90
81307;DHT22;70775;50.846;3.224;2024-01-27T10:31:33;6.30;99.90
81307;DHT22;70775;50.846;3.224;2024-01-27T10:33:59;6.40;99.90
81307;DHT22;70775;50.846;3.224;2024-01-27T10:36:44;6.40;99.90
81307;DHT22;70775;50.846;3.224;2024-01-27T10:39:17;6.60;99.90
81307;DHT22;70775;50.846;3.224;2024-01-27T10:41:46;6.60;99.90
81307;DHT22;70775;50.846;3.224;2024-01-27T10:44:15;6.60;99.90
81307;DHT22;70775;50.846;3.224;2024-01-27T10:46:47;6.70;99.90
81307;DHT22;70775;50.846;3.224;2024-01-27T10:49:15;6.80;99.90
81307;DHT22;70775;50.846;3.224;2024-01-27T10:51:55;7.10;99.90
81307;DHT22;70775;50.846;3.224;2024-01-27T10:54:27;7.30;99.90
81307;DHT22;70775;50.846;3.224;2024-01-27T10:56:55;7.40;99.90
81307;DHT22;70775;50.846;3.224;2024-01-27T10:59:21;7.40;99.90
81307;DHT22;70775;50.846;3.224;2024-01-27T11:01:49;7.40;99.90
81307;DHT22;70775;50.846;3.224;2024-01-27T11:04:22;7.50;99.90
81307;DHT22;70775;50.846;3.224;2024-01-27T11:06:48;7.50;99.90
81307;DHT22;70775;50.846;3.224;2024-01-27T11:09:15;7.40;99.90
81307;DHT22;70775;50.846;3.224;2024-01-27T11:11:45;7.50;99.90
81307;DHT22;70775;50.846;3.224;2024-01-27T11:14:11;7.70;99.90
81307;DHT22;70775;50.846;3.224;2024-01-27T11:16:37;7.90;99.90
81307;DHT22;70775;50.846;3.224;2024-01-27T11:19:14;8.00;99.90
81307;DHT22;70775;50.846;3.224;2024-01-27T11:21:39;8.20;99.90
81307;DHT22;70775;50.846;3.224;2024-01-27T11:24:17;8.20;99.90
81307;DHT22;70775;50.846;3.224;2024-01-27T11:27:00;8.10;99.90
81307;DHT22;70775;50.846;3.224;2024-01-27T11:29:26;8.30;99.90
81307;DHT22;70775;50.846;3.224;2024-01-27T11:31:55;8.30;99.90
81307;DHT22;70775;50.846;3.224;2024-01-27T11:34:21;8.30;99.90
81307;DHT22;70775;50.846;3.224;2024-01-27T11:36:47;8.30;99.90
81307;DHT22;70775;50.846;3.224;2024-01-27T11:39:31;8.30;99.90
81307;DHT22;70775;50.846;3.224;2024-01-27T11:42:11;8.10;99.90
81307;DHT22;70775;50.846;3.224;2024-01-27T11:44:41;8.10;99.90
81307;DHT22;70775;50.846;3.224;2024-01-27T11:47:15;8.20;99.90
81307;DHT22;70775;50.846;3.224;2024-01-27T11:49:42;8.40;99.90
81307;DHT22;70775;50.846;3.224;2024-01-27T11:52:33;8.60;99.90
81307;DHT22;70775;50.846;3.224;2024-01-27T11:54:59;8.60;99.90
81307;DHT22;70775;50.846;3.224;2024-01-27T11:57:26;8.70;99.90
81307;DHT22;70775;50.846;3.224;2024-01-27T11:59:52;8.70;99.90
81307;DHT22;70775;50.846;3.224;2024-01-27T12:02:18;8.90;99.90
81307;DHT22;70775;50.846;3.224;2024-01-27T12:04:44;9.20;99.90
81307;DHT22;70775;50.846;3.224;2024-01-27T12:07:10;9.40;99.90
81307;DHT22;70775;50.846;3.224;2024-01-27T12:09:36;9.10;99.90
81307;DHT22;70775;50.846;3.224;2024-01-27T12:12:05;9.10;99.90
81307;DHT22;70775;50.846;3.224;2024-01-27T12:14:57;8.90;99.90
81307;DHT22;70775;50.846;3.224;2024-01-27T12:17:25;9.10;99.90
81307;DHT22;70775;50.846;3.224;2024-01-27T12:19:52;9.10;99.90
81307;DHT22;70775;50.846;3.224;2024-01-27T12:22:29;9.20;99.90
81307;DHT22;70775;50.846;3.224;2024-01-27T12:24:56;9.20;99.90
81307;DHT22;70775;50.846;3.224;2024-01-27T12:27:22;9.30;99.90
81307;DHT22;70775;50.846;3.224;2024-01-27T12:29:49;9.30;99.90
81307;DHT22;70775;50.846;3.224;2024-01-27T12:32:18;9.50;99.90
81307;DHT22;70775;50.846;3.224;2024-01-27T12:34:45;9.60;99.90
81307;DHT22;70775;50.846;3.224;2024-01-27T12:37:14;9.80;99.90
81307;DHT22;70775;50.846;3.224;2024-01-27T12:39:43;9.90;99.90
81307;DHT22;70775;50.846;3.224;2024-01-27T12:42:10;10.00;99.90
81307;DHT22;70775;50.846;3.224;2024-01-27T12:44:44;9.90;99.90
81307;DHT22;70775;50.846;3.224;2024-01-27T12:47:10;9.80;99.70
81307;DHT22;70775;50.846;3.224;2024-01-27T12:49:36;9.70;99.90
81307;DHT22;70775;50.846;3.224;2024-01-27T12:52:02;9.80;99.90
81307;DHT22;70775;50.846;3.224;2024-01-27T12:54:28;9.80;99.10
81307;DHT22;70775;50.846;3.224;2024-01-27T12:56:55;9.80;99.20
81307;DHT22;70775;50.846;3.224;2024-01-27T12:59:24;9.90;99.90
81307;DHT22;70775;50.846;3.224;2024-01-27T13:01:51;9.90;99.90
81307;DHT22;70775;50.846;3.224;2024-01-27T13:04:17;9.80;99.90
81307;DHT22;70775;50.846;3.224;2024-01-27T13:06:42;9.80;99.90
81307;DHT22;70775;50.846;3.224;2024-01-27T13:09:08;9.70;99.90
81307;DHT22;70775;50.846;3.224;2024-01-27T13:11:38;9.70;99.90
81307;DHT22;70775;50.846;3.224;2024-01-27T13:14:03;9.70;97.90
81307;DHT22;70775;50.846;3.224;2024-01-27T13:16:30;9.70;97.80
81307;DHT22;70775;50.846;3.224;2024-01-27T13:18:55;9.50;97.20
81307;DHT22;70775;50.846;3.224;2024-01-27T13:21:21;9.50;98.30
81307;DHT22;70775;50.846;3.224;2024-01-27T13:23:46;9.60;97.20
81307;DHT22;70775;50.846;3.224;2024-01-27T13:26:12;9.50;97.20
81307;DHT22;70775;50.846;3.224;2024-01-27T13:28:38;9.60;97.50
81307;DHT22;70775;50.846;3.224;2024-01-27T13:31:04;9.80;96.90
81307;DHT22;70775;50.846;3.224;2024-01-27T13:33:30;9.80;97.50
81307;DHT22;70775;50.846;3.224;2024-01-27T13:35:56;10.00;97.30
81307;DHT22;70775;50.846;3.224;2024-01-27T13:38:21;10.10;96.10
81307;DHT22;70775;50.846;3.224;2024-01-27T13:40:51;9.90;95.90
81307;DHT22;70775;50.846;3.224;2024-01-27T13:43:17;9.80;95.80
81307;DHT22;70775;50.846;3.224;2024-01-27T13:45:42;9.50;96.00
81307;DHT22;70775;50.846;3.224;2024-01-27T13:48:08;9.30;96.80
81307;DHT22;70775;50.846;3.224;2024-01-27T13:50:34;9.40;96.70
81307;DHT22;70775;50.846;3.224;2024-01-27T13:53:00;9.50;96.40
81307;DHT22;70775;50.846;3.224;2024-01-27T13:55:25;9.50;95.70
81307;DHT22;70775;50.846;3.224;2024-01-27T13:57:51;9.60;95.70
81307;DHT22;70775;50.846;3.224;2024-01-27T14:00:17;9.60;95.10
81307;DHT22;70775;50.846;3.224;2024-01-27T14:02:43;9.50;96.10
81307;DHT22;70775;50.846;3.224;2024-01-27T14:05:09;9.70;95.90
81307;DHT22;70775;50.846;3.224;2024-01-27T14:07:35;9.70;95.80
81307;DHT22;70775;50.846;3.224;2024-01-27T14:10:01;9.90;95.80
81307;DHT22;70775;50.846;3.224;2024-01-27T14:12:27;10.10;95.30
81307;DHT22;70775;50.846;3.224;2024-01-27T14:14:53;10.30;94.00
81307;DHT22;70775;50.846;3.224;2024-01-27T14:17:20;10.40;93.40
81307;DHT22;70775;50.846;3.224;2024-01-27T14:19:48;10.40;92.00
81307;DHT22;70775;50.846;3.224;2024-01-27T14:22:14;10.60;93.30
81307;DHT22;70775;50.846;3.224;2024-01-27T14:24:40;10.80;92.60
81307;DHT22;70775;50.846;3.224;2024-01-27T14:27:07;10.90;92.20
81307;DHT22;70775;50.846;3.224;2024-01-27T14:29:33;11.10;92.30
81307;DHT22;70775;50.846;3.224;2024-01-27T14:32:00;11.10;92.00
81307;DHT22;70775;50.846;3.224;2024-01-27T14:34:26;10.90;93.00
81307;DHT22;70775;50.846;3.224;2024-01-27T14:36:52;11.00;93.30
81307;DHT22;70775;50.846;3.224;2024-01-27T14:39:18;10.70;90.50
81307;DHT22;70775;50.846;3.224;2024-01-27T14:41:43;10.30;92.00
81307;DHT22;70775;50.846;3.224;2024-01-27T14:44:09;10.30;91.70
81307;DHT22;70775;50.846;3.224;2024-01-27T14:46:37;10.20;93.10
81307;DHT22;70775;50.846;3.224;2024-01-27T14:49:06;10.40;93.70
81307;DHT22;70775;50.846;3.224;2024-01-27T14:51:34;10.60;92.50
81307;DHT22;70775;50.846;3.224;2024-01-27T14:54:00;10.80;91.80
81307;DHT22;70775;50.846;3.224;2024-01-27T14:56:29;10.90;91.80
81307;DHT22;70775;50.846;3.224;2024-01-27T14:58:55;10.90;91.80
81307;DHT22;70775;50.846;3.224;2024-01-27T15:01:21;10.90;92.10
81307;DHT22;70775;50.846;3.224;2024-01-27T15:03:48;11.00;91.90
81307;DHT22;70775;50.846;3.224;2024-01-27T15:06:14;10.80;92.10
81307;DHT22;70775;50.846;3.224;2024-01-27T15:08:40;10.60;92.40
81307;DHT22;70775;50.846;3.224;2024-01-27T15:11:06;10.50;92.30
81307;DHT22;70775;50.846;3.224;2024-01-27T15:13:32;10.60;92.30
81307;DHT22;70775;50.846;3.224;2024-01-27T15:15:57;10.50;91.90
81307;DHT22;70775;50.846;3.224;2024-01-27T15:18:23;10.60;92.10
81307;DHT22;70775;50.846;3.224;2024-01-27T15:20:49;10.60;91.80
81307;DHT22;70775;50.846;3.224;2024-01-27T15:23:15;10.60;91.60
81307;DHT22;70775;50.846;3.224;2024-01-27T15:25:40;10.40;91.90
81307;DHT22;70775;50.846;3.224;2024-01-27T15:28:07;10.50;92.10
81307;DHT22;70775;50.846;3.224;2024-01-27T15:30:33;10.50;91.70
81307;DHT22;70775;50.846;3.224;2024-01-27T15:32:58;10.50;91.80
81307;DHT22;70775;50.846;3.224;2024-01-27T15:35:24;10.30;92.00
81307;DHT22;70775;50.846;3.224;2024-01-27T15:37:50;10.20;92.00
81307;DHT22;70775;50.846;3.224;2024-01-27T15:40:15;10.20;92.20
81307;DHT22;70775;50.846;3.224;2024-01-27T15:42:41;10.20;92.50
81307;DHT22;70775;50.846;3.224;2024-01-27T15:45:07;10.20;92.20
81307;DHT22;70775;50.846;3.224;2024-01-27T15:47:32;10.00;92.00
81307;DHT22;70775;50.846;3.224;2024-01-27T15:49:58;9.90;92.50
81307;DHT22;70775;50.846;3.224;2024-01-27T15:52:32;9.60;93.20
81307;DHT22;70775;50.846;3.224;2024-01-27T15:54:58;9.40;94.20
81307;DHT22;70775;50.846;3.224;2024-01-27T15:57:24;9.30;94.80
81307;DHT22;70775;50.846;3.224;2024-01-27T15:59:50;9.30;95.40
81307;DHT22;70775;50.846;3.224;2024-01-27T16:02:16;9.40;96.20